createdAt,value
2019-05-07T00:01:02.956Z,21.87
2019-05-07T00:04:06.399Z,21.87
2019-05-07T00:07:09.883Z,21.86
2019-05-07T00:10:13.399Z,21.86
2019-05-07T00:13:16.893Z,21.86
2019-05-07T00:16:22.380Z,21.86
2019-05-07T00:19:25.794Z,21.85
2019-05-07T00:22:29.246Z,21.86
2019-05-07T00:25:33.031Z,21.87
2019-05-07T00:28:36.540Z,21.85
2019-05-07T00:31:42.002Z,21.86
2019-05-07T00:34:49.818Z,21.85
2019-05-07T00:38:02.548Z,21.85
2019-05-07T00:41:15.700Z,21.82
2019-05-07T00:44:19.425Z,21.82
2019-05-07T00:47:23.880Z,21.82
2019-05-07T00:50:33.125Z,21.82
2019-05-07T00:53:36.823Z,21.82
2019-05-07T00:56:42.900Z,21.82
2019-05-07T00:59:46.888Z,21.82
2019-05-07T01:02:52.394Z,21.81
2019-05-07T01:05:55.743Z,21.80
2019-05-07T01:08:59.241Z,21.81
2019-05-07T01:12:03.249Z,21.80
2019-05-07T01:15:06.790Z,21.79
2019-05-07T01:18:12.285Z,21.79
2019-05-07T01:21:15.529Z,21.79
2019-05-07T01:24:18.993Z,21.81
2019-05-07T01:27:22.815Z,21.77
2019-05-07T01:30:26.405Z,21.78
2019-05-07T01:33:38.419Z,21.77
2019-05-07T01:36:42.744Z,21.76
2019-05-07T01:39:47.343Z,21.78
2019-05-07T01:42:52.920Z,21.77
2019-05-07T01:45:56.146Z,21.77
2019-05-07T01:48:59.550Z,21.75
2019-05-07T01:52:04.040Z,21.74
2019-05-07T01:55:07.520Z,21.75
2019-05-07T01:58:12.535Z,21.74
2019-05-07T02:01:16.365Z,21.74
2019-05-07T02:04:32.654Z,21.74
2019-05-07T02:07:45.536Z,21.73
2019-05-07T02:11:08.042Z,21.72
2019-05-07T02:14:13.494Z,21.73
2019-05-07T02:17:16.719Z,21.71
2019-05-07T02:20:22.388Z,21.72
2019-05-07T02:23:25.510Z,21.72
2019-05-07T02:26:32.078Z,21.71
2019-05-07T02:29:38.039Z,21.71
2019-05-07T02:32:43.135Z,21.71
2019-05-07T02:35:45.663Z,21.70
2019-05-07T02:38:54.517Z,21.69
2019-05-07T02:41:59.012Z,21.70
2019-05-07T02:45:24.233Z,21.71
2019-05-07T02:48:33.283Z,21.69
2019-05-07T02:51:43.498Z,21.69
2019-05-07T02:55:13.169Z,21.67
2019-05-07T02:58:16.012Z,21.68
2019-05-07T03:01:22.456Z,21.66
2019-05-07T03:04:25.480Z,21.67
2019-05-07T03:07:33.185Z,21.67
2019-05-07T03:10:35.245Z,21.67
2019-05-07T03:13:39.765Z,21.67
2019-05-07T03:16:48.534Z,21.65
2019-05-07T03:19:53.193Z,21.65
2019-05-07T03:22:57.493Z,21.65
2019-05-07T03:26:06.693Z,21.65
2019-05-07T03:29:14.738Z,21.64
2019-05-07T03:32:39.525Z,21.64
2019-05-07T03:35:47.055Z,21.64
2019-05-07T03:38:53.796Z,21.63
2019-05-07T03:41:57.504Z,21.62
2019-05-07T03:45:23.056Z,21.63
2019-05-07T03:48:27.930Z,21.62
2019-05-07T03:51:32.987Z,21.61
2019-05-07T03:54:36.547Z,21.62
2019-05-07T03:57:43.255Z,21.62
2019-05-07T04:00:45.934Z,21.62
2019-05-07T04:03:49.429Z,21.61
2019-05-07T04:06:53.919Z,21.62
2019-05-07T04:09:59.383Z,21.60
2019-05-07T04:13:04.512Z,21.62
2019-05-07T04:16:08.163Z,21.59
2019-05-07T04:19:13.286Z,21.59
2019-05-07T04:22:19.390Z,21.60
2019-05-07T04:25:29.693Z,21.59
2019-05-07T04:28:55.199Z,21.61
2019-05-07T04:31:58.958Z,21.59
2019-05-07T04:35:12.540Z,21.59
2019-05-07T04:38:15.144Z,21.58
2019-05-07T04:41:18.850Z,21.60
2019-05-07T04:44:23.768Z,21.59
2019-05-07T04:47:38.694Z,21.60
2019-05-07T04:50:42.996Z,21.59
2019-05-07T04:53:42.929Z,21.58
2019-05-07T04:56:45.950Z,21.56
2019-05-07T04:59:49.484Z,21.56
2019-05-07T05:03:18.360Z,21.58
2019-05-07T05:06:24.203Z,21.59
2019-05-07T05:09:27.236Z,21.57
2019-05-07T05:12:32.652Z,21.58
2019-05-07T05:15:36.034Z,21.59
2019-05-07T05:18:41.931Z,21.57
2019-05-07T05:21:52.837Z,21.57
2019-05-07T05:25:27.565Z,21.57
2019-05-07T05:28:32.328Z,21.57
2019-05-07T05:31:36.221Z,21.55
2019-05-07T05:34:39.706Z,21.56
2019-05-07T05:37:43.380Z,21.56
2019-05-07T05:40:46.796Z,21.55
2019-05-07T05:44:09.353Z,21.55
2019-05-07T05:47:12.914Z,21.56
2019-05-07T05:50:16.442Z,21.55
2019-05-07T05:53:32.668Z,21.57
2019-05-07T05:57:02.604Z,21.56
2019-05-07T06:00:36.663Z,21.55
2019-05-07T06:03:56.842Z,21.55
2019-05-07T06:07:11.300Z,21.53
2019-05-07T06:10:33.001Z,21.56
2019-05-07T06:13:43.633Z,21.55
2019-05-07T06:17:22.402Z,21.53
2019-05-07T06:20:44.969Z,21.55
2019-05-07T06:23:52.918Z,21.55
2019-05-07T06:26:56.438Z,21.56
2019-05-07T06:30:04.342Z,21.55
2019-05-07T06:33:05.249Z,21.57
2019-05-07T06:36:08.727Z,21.57
2019-05-07T06:39:18.363Z,21.58
2019-05-07T06:42:42.753Z,21.60
2019-05-07T06:45:51.928Z,21.59
2019-05-07T06:48:56.637Z,21.58
2019-05-07T06:52:03.144Z,21.60
2019-05-07T06:55:08.331Z,21.61
2019-05-07T06:58:12.529Z,21.62
2019-05-07T07:01:32.289Z,21.61
2019-05-07T07:04:45.439Z,21.62
2019-05-07T07:07:56.131Z,21.63
2019-05-07T07:11:04.761Z,21.62
2019-05-07T07:14:08.331Z,21.63
2019-05-07T07:17:12.913Z,21.63
2019-05-07T07:20:16.544Z,21.65
2019-05-07T07:23:19.978Z,21.65
2019-05-07T07:26:24.457Z,21.67
2019-05-07T07:29:32.428Z,21.68
2019-05-07T07:32:38.433Z,21.70
2019-05-07T07:35:43.895Z,21.73
2019-05-07T07:38:49.471Z,21.75
2019-05-07T07:41:55.631Z,21.75
2019-05-07T07:45:15.282Z,21.76
2019-05-07T07:48:18.813Z,21.77
2019-05-07T07:51:36.853Z,21.79
2019-05-07T07:54:27.809Z,21.80
2019-05-07T07:57:45.441Z,21.83
2019-05-07T08:00:55.990Z,21.81
2019-05-07T08:03:59.461Z,21.83
2019-05-07T08:07:03.996Z,21.84
2019-05-07T08:10:08.519Z,21.84
2019-05-07T08:13:14.059Z,21.86
2019-05-07T08:16:17.458Z,21.85
2019-05-07T08:19:22.750Z,21.87
2019-05-07T08:22:26.208Z,21.87
2019-05-07T08:25:48.014Z,21.89
2019-05-07T08:28:52.402Z,21.88
2019-05-07T08:32:06.418Z,21.87
2019-05-07T08:35:32.686Z,21.87
2019-05-07T08:38:52.446Z,21.88
2019-05-07T08:41:54.996Z,21.88
2019-05-07T08:45:05.616Z,21.88
2019-05-07T08:48:14.206Z,21.91
2019-05-07T08:51:17.794Z,21.92
2019-05-07T08:54:23.336Z,21.93
2019-05-07T08:57:26.851Z,21.94
2019-05-07T09:00:32.622Z,21.94
2019-05-07T09:03:45.137Z,21.93
2019-05-07T09:06:49.614Z,21.94
2019-05-07T09:09:53.125Z,21.96
2019-05-07T09:12:56.696Z,21.97
2019-05-07T09:16:02.302Z,21.98
2019-05-07T09:19:05.600Z,22.00
2019-05-07T09:22:09.163Z,22.01
2019-05-07T09:25:15.010Z,22.02
2019-05-07T09:28:19.571Z,22.03
2019-05-07T09:31:32.102Z,22.03
2019-05-07T09:34:38.310Z,22.03
2019-05-07T09:37:42.131Z,22.03
2019-05-07T09:40:45.797Z,22.04
2019-05-07T09:43:49.248Z,22.04
2019-05-07T09:46:53.797Z,22.02
2019-05-07T09:50:04.766Z,22.03
2019-05-07T09:53:02.768Z,22.04
2019-05-07T09:56:06.350Z,22.06
2019-05-07T09:59:09.972Z,22.06
2019-05-07T10:02:13.520Z,22.07
2019-05-07T10:05:17.202Z,22.07
2019-05-07T10:08:21.760Z,22.08
2019-05-07T10:11:34.521Z,22.07
2019-05-07T10:14:38.148Z,22.08
2019-05-07T10:17:50.802Z,22.08
2019-05-07T10:20:54.457Z,22.09
2019-05-07T10:23:57.910Z,22.08
2019-05-07T10:27:02.237Z,22.10
2019-05-07T10:30:06.049Z,22.09
2019-05-07T10:33:09.620Z,22.08
2019-05-07T10:36:14.167Z,22.06
2019-05-07T10:39:18.789Z,22.08
2019-05-07T10:42:22.742Z,22.09
2019-05-07T10:45:58.483Z,22.13
2019-05-07T10:49:17.567Z,22.16
2019-05-07T10:52:27.109Z,22.14
2019-05-07T10:55:32.700Z,22.16
2019-05-07T10:58:36.024Z,22.17
2019-05-07T11:01:51.995Z,22.20
2019-05-07T11:04:56.731Z,22.20
2019-05-07T11:08:02.261Z,22.21
2019-05-07T11:11:05.396Z,22.22
2019-05-07T11:14:12.312Z,22.23
2019-05-07T11:17:25.290Z,22.23
2019-05-07T11:20:28.771Z,22.21
2019-05-07T11:23:33.298Z,22.23
2019-05-07T11:26:37.886Z,22.24
2019-05-07T11:29:42.952Z,22.26
2019-05-07T11:32:48.718Z,22.27
2019-05-07T11:35:54.279Z,22.26
2019-05-07T11:38:57.758Z,22.29
2019-05-07T11:42:13.217Z,22.31
2019-05-07T11:45:22.765Z,22.32
2019-05-07T11:48:26.945Z,22.33
2019-05-07T11:51:38.638Z,22.37
2019-05-07T11:54:43.306Z,22.40
2019-05-07T11:57:46.832Z,22.41
2019-05-07T12:00:55.540Z,22.43
2019-05-07T12:04:01.976Z,22.44
2019-05-07T12:07:05.312Z,22.45
2019-05-07T12:10:09.174Z,22.48
2019-05-07T12:13:12.945Z,22.49
2019-05-07T12:16:16.650Z,22.52
2019-05-07T12:19:22.671Z,22.51
2019-05-07T12:22:46.412Z,22.53
2019-05-07T12:25:49.894Z,22.56
2019-05-07T12:28:53.373Z,22.57
2019-05-07T12:32:05.532Z,22.61
2019-05-07T12:35:12.716Z,22.62
2019-05-07T12:38:16.469Z,22.63
2019-05-07T12:41:34.182Z,22.64
2019-05-07T12:44:37.926Z,22.67
2019-05-07T12:47:45.523Z,22.69
2019-05-07T12:50:49.024Z,22.70
2019-05-07T12:53:57.916Z,22.72
2019-05-07T12:57:07.281Z,22.75
2019-05-07T13:00:28.867Z,22.76
2019-05-07T13:03:39.768Z,22.78
2019-05-07T13:06:56.253Z,22.79
2019-05-07T13:09:59.799Z,22.81
2019-05-07T13:13:04.316Z,22.81
2019-05-07T13:16:07.806Z,22.82
2019-05-07T13:19:13.076Z,22.84
2019-05-07T13:22:16.651Z,22.87
2019-05-07T13:25:21.616Z,22.88
2019-05-07T13:28:25.491Z,22.89
2019-05-07T13:31:28.994Z,22.91
2019-05-07T13:34:34.197Z,22.93
2019-05-07T13:37:41.822Z,22.96
2019-05-07T13:41:12.572Z,22.96
2019-05-07T13:44:29.006Z,22.98
2019-05-07T13:47:40.592Z,23.00
2019-05-07T13:50:46.162Z,23.04
2019-05-07T13:53:49.630Z,23.03
2019-05-07T13:56:53.160Z,23.08
2019-05-07T13:59:56.626Z,23.05
2019-05-07T14:03:00.256Z,23.02
2019-05-07T14:06:04.558Z,23.01
2019-05-07T14:09:16.388Z,23.00
2019-05-07T14:12:19.837Z,22.98
2019-05-07T14:15:24.386Z,22.95
2019-05-07T14:18:27.882Z,22.94
2019-05-07T14:21:32.478Z,22.93
2019-05-07T14:24:36.131Z,22.86
2019-05-07T14:27:42.676Z,22.80
2019-05-07T14:30:45.959Z,22.86
2019-05-07T14:33:57.699Z,22.86
2019-05-07T14:37:26.432Z,22.87
2019-05-07T14:40:32.205Z,22.76
2019-05-07T14:43:49.667Z,22.79
2019-05-07T14:46:54.446Z,22.84
2019-05-07T14:49:58.015Z,22.70
2019-05-07T14:53:02.719Z,22.75
2019-05-07T14:56:06.547Z,22.74
2019-05-07T14:59:10.156Z,22.72
2019-05-07T15:02:13.621Z,22.73
2019-05-07T15:05:17.136Z,22.71
2019-05-07T15:08:21.987Z,22.69
2019-05-07T15:11:25.555Z,22.72
2019-05-07T15:14:31.332Z,22.71
2019-05-07T15:17:45.987Z,22.66
2019-05-07T15:20:49.570Z,22.65
2019-05-07T15:23:53.664Z,22.68
2019-05-07T15:26:57.469Z,22.72
2019-05-07T15:30:02.285Z,22.69
2019-05-07T15:33:05.839Z,22.69
2019-05-07T15:36:11.949Z,22.75
2019-05-07T15:39:15.511Z,22.72
2019-05-07T15:42:22.107Z,22.76
2019-05-07T15:45:26.410Z,22.72
2019-05-07T15:48:29.894Z,22.73
2019-05-07T15:51:34.424Z,22.74
2019-05-07T15:54:37.953Z,22.77
2019-05-07T15:57:42.813Z,22.78
2019-05-07T16:00:47.201Z,22.76
2019-05-07T16:03:54.312Z,22.73
2019-05-07T16:06:57.981Z,22.72
2019-05-07T16:10:01.581Z,22.66
2019-05-07T16:13:07.991Z,22.71
2019-05-07T16:16:12.490Z,22.68
2019-05-07T16:19:21.120Z,22.67
2019-05-07T16:22:32.765Z,22.65
2019-05-07T16:25:37.301Z,22.68
2019-05-07T16:28:41.720Z,22.67
2019-05-07T16:31:45.329Z,22.67
2019-05-07T16:34:48.820Z,22.66
2019-05-07T16:37:53.396Z,22.69
2019-05-07T16:40:56.858Z,22.68
2019-05-07T16:44:02.903Z,22.68
2019-05-07T16:47:07.542Z,22.68
2019-05-07T16:50:12.952Z,22.68
2019-05-07T16:53:27.432Z,22.68
2019-05-07T16:56:22.733Z,22.67
2019-05-07T16:59:26.565Z,22.65
2019-05-07T17:02:34.170Z,22.65
2019-05-07T17:05:37.746Z,22.64
2019-05-07T17:08:51.677Z,22.64
2019-05-07T17:12:01.324Z,22.62
2019-05-07T17:15:05.352Z,22.63
2019-05-07T17:18:08.960Z,22.61
2019-05-07T17:21:12.494Z,22.59
2019-05-07T17:24:15.963Z,22.58
2019-05-07T17:27:19.480Z,22.59
2019-05-07T17:30:22.961Z,22.56
2019-05-07T17:33:26.515Z,22.57
2019-05-07T17:36:29.967Z,22.58
2019-05-07T17:39:33.471Z,22.59
2019-05-07T17:42:36.986Z,22.57
2019-05-07T17:45:40.469Z,22.56
2019-05-07T17:48:43.977Z,22.58
2019-05-07T17:51:47.506Z,22.57
2019-05-07T17:54:52.781Z,22.57
2019-05-07T17:57:56.340Z,22.55
2019-05-07T18:01:02.587Z,22.55
2019-05-07T18:04:06.198Z,22.56
2019-05-07T18:07:12.026Z,22.56
2019-05-07T18:10:15.662Z,22.56
2019-05-07T18:13:22.274Z,22.54
2019-05-07T18:16:42.218Z,22.56
2019-05-07T18:19:48.512Z,22.54
2019-05-07T18:22:54.033Z,22.54
2019-05-07T18:25:58.734Z,22.54
2019-05-07T18:29:02.548Z,22.52
2019-05-07T18:32:06.752Z,22.54
2019-05-07T18:35:12.488Z,22.54
2019-05-07T18:38:15.627Z,22.52
2019-05-07T18:41:22.225Z,22.52
2019-05-07T18:44:25.485Z,22.52
2019-05-07T18:47:30.017Z,22.52
2019-05-07T18:50:34.541Z,22.52
2019-05-07T18:53:38.077Z,22.51
2019-05-07T18:56:42.163Z,22.52
2019-05-07T18:59:45.862Z,22.51
2019-05-07T19:02:52.318Z,22.51
2019-05-07T19:05:56.240Z,22.52
2019-05-07T19:09:00.677Z,22.50
2019-05-07T19:12:06.674Z,22.51
2019-05-07T19:15:12.311Z,22.51
2019-05-07T19:18:15.476Z,22.51
2019-05-07T19:21:18.978Z,22.52
2019-05-07T19:24:26.095Z,22.51
2019-05-07T19:27:28.843Z,22.51
2019-05-07T19:30:33.368Z,22.50
2019-05-07T19:33:36.880Z,22.49
2019-05-07T19:36:42.382Z,22.48
2019-05-07T19:39:49.606Z,22.45
2019-05-07T19:42:53.092Z,22.42
2019-05-07T19:45:57.633Z,22.38
2019-05-07T19:49:02.752Z,22.38
2019-05-07T19:52:06.475Z,22.34
2019-05-07T19:55:09.964Z,22.30
2019-05-07T19:58:13.469Z,22.32
2019-05-07T20:01:22.640Z,22.27
2019-05-07T20:04:25.803Z,22.30
2019-05-07T20:07:31.963Z,22.27
2019-05-07T20:10:42.763Z,22.27
2019-05-07T20:13:46.342Z,22.24
2019-05-07T20:16:53.004Z,22.23
2019-05-07T20:19:56.224Z,22.24
2019-05-07T20:23:02.640Z,22.22
2019-05-07T20:26:07.959Z,22.20
2019-05-07T20:29:12.313Z,22.19
2019-05-07T20:32:15.955Z,22.19
2019-05-07T20:35:23.543Z,22.18
2019-05-07T20:38:28.075Z,22.18
2019-05-07T20:41:33.624Z,22.16
2019-05-07T20:44:37.150Z,22.17
2019-05-07T20:47:42.256Z,22.14
2019-05-07T20:50:45.776Z,22.13
2019-05-07T20:54:06.923Z,22.13
2019-05-07T20:57:22.322Z,22.14
2019-05-07T21:00:29.825Z,22.11
2019-05-07T21:03:33.346Z,22.12
2019-05-07T21:06:37.891Z,22.10
2019-05-07T21:09:42.450Z,22.09
2019-05-07T21:12:47.951Z,22.07
2019-05-07T21:15:58.413Z,22.07
2019-05-07T21:19:02.187Z,22.06
2019-05-07T21:22:05.818Z,22.07
2019-05-07T21:25:09.320Z,22.05
2019-05-07T21:28:12.842Z,22.05
2019-05-07T21:31:17.355Z,22.05
2019-05-07T21:34:22.993Z,22.04
2019-05-07T21:37:26.829Z,22.03
2019-05-07T21:40:32.050Z,22.03
2019-05-07T21:43:35.671Z,22.03
2019-05-07T21:46:39.170Z,22.00
2019-05-07T21:49:43.142Z,22.00
2019-05-07T21:52:51.416Z,22.01
2019-05-07T21:56:07.022Z,22.01
2019-05-07T21:59:14.227Z,22.00
2019-05-07T22:02:22.217Z,21.99
2019-05-07T22:05:25.776Z,21.99
2019-05-07T22:08:29.262Z,21.98
2019-05-07T22:11:32.779Z,21.98
2019-05-07T22:14:36.268Z,21.95
2019-05-07T22:17:39.767Z,21.94
2019-05-07T22:20:44.309Z,21.95
2019-05-07T22:23:47.803Z,21.94
2019-05-07T22:26:53.333Z,21.94
2019-05-07T22:29:57.865Z,21.94
2019-05-07T22:33:12.890Z,21.94
2019-05-07T22:36:16.400Z,21.92
2019-05-07T22:39:21.933Z,21.90
2019-05-07T22:42:25.204Z,21.94
2019-05-07T22:45:28.692Z,21.92
2019-05-07T22:48:32.565Z,21.89
2019-05-07T22:51:36.088Z,21.90
2019-05-07T22:54:42.741Z,21.89
2019-05-07T22:58:06.294Z,21.88
2019-05-07T23:01:13.129Z,21.89
2019-05-07T23:04:16.541Z,21.86
2019-05-07T23:07:22.196Z,21.88
2019-05-07T23:10:25.148Z,21.86
2019-05-07T23:13:28.669Z,21.87
2019-05-07T23:16:32.506Z,21.88
2019-05-07T23:19:37.084Z,21.87
2019-05-07T23:22:42.843Z,21.86
2019-05-07T23:25:46.372Z,21.84
2019-05-07T23:28:51.762Z,21.83
2019-05-07T23:31:56.006Z,21.85
2019-05-07T23:35:05.443Z,21.82
2019-05-07T23:38:09.202Z,21.82
2019-05-07T23:41:24.964Z,21.81
2019-05-07T23:44:28.445Z,21.81
2019-05-07T23:47:31.959Z,21.82
2019-05-07T23:50:35.458Z,21.81
2019-05-07T23:53:40.003Z,21.78
2019-05-07T23:56:44.495Z,21.82
2019-05-07T23:59:49.049Z,21.80
